Saga Odyssey — VRDU9 — position and weather

sailwx.info

Track history (hours):
 
Tides and Currents Weather Stations Pressure Air Temp Water Temp Dewpoint Dewpoint Depression Visibility Wind Speed Wind Dir Waves Ship Positions

Saga Odyssey

Last reported at 2018-Feb-23 18:00 UTC. Time now 2018-Feb-24 00:52 UTC.
Position N 11°00' W 060°54'.

Length 199 m; draft 11.5 m.

Type: Cargo ship. MMSI: 477058200.

Date/timePositionNaut miles runAvg speedWind from/ knotsBaromVisibWave heightAir tempDewpointWater temp
2018-Feb-23 18:00N 11°00' W 060°54'48 9.5
2018-Feb-23 13:00N 10°36' W 060°12'2121.4 070 / 221017.2 5.4 26.023.224.6
2018-Feb-23 12:00N 10°24' W 059°54'10411.5 070 / 221017.2 5.4 26.823.524.6
2018-Feb-23 03:00N 09°30' W 058°24'9612.0 050 / 191016.4 5.4 26.322.224.2
2018-Feb-22 19:00N 08°42' W 057°00'17712.6
2018-Feb-22 05:00N 07°06' W 054°30'2210.8
2018-Feb-22 03:00N 06°54' W 054°12'9912.4 050 / 221015.1 5.4 25.121.023.3
2018-Feb-21 19:00N 06°00' W 052°48'5313.4
2018-Feb-21 15:00N 05°36' W 052°00'5112.9 050 / 211014.2 5.4 24.222.823.4
2018-Feb-21 11:00N 05°06' W 051°18'9812.3 050 / 211014.2 5.4 24.222.823.4
2018-Feb-21 03:00N 04°06' W 050°00'4711.7 070 / 201015.2 5.4 25.323.824.1
2018-Feb-20 23:00N 03°30' W 049°30'1313.4 070 / 201012.2 5.4 25.323.824.1
2018-Feb-20 22:00N 03°18' W 049°24'8211.7 070 / 201012.6 5.4 25.423.624.5
2018-Feb-20 15:00N 02°12' W 048°36'4711.7 070 / 181013.2 5.4 24.622.623.3
2018-Feb-20 11:00N 01°36' W 048°06'65 9.3 070 / 181013.2 5.4 24.622.623.3
2018-Feb-20 04:00N 00°42' W 047°30'48 8.7 060 / 10 1.1
2018-Feb-19 22:27S 00°05' W 047°40'4 9.0
2018-Feb-19 22:00S 00°08' W 047°43'5 9.9
2018-Feb-19 21:30S 00°11' W 047°47'510.7
2018-Feb-19 21:00S 00°14' W 047°51'612.9
2018-Feb-19 20:30S 00°17' W 047°57'713.1
2018-Feb-19 20:00S 00°20' W 048°03'713.4
2018-Feb-19 19:30S 00°23' W 048°09'813.8
2018-Feb-19 18:57S 00°28' W 048°15'613.1
2018-Feb-19 18:30S 00°32' W 048°19'612.6
2018-Feb-19 18:00S 00°37' W 048°22'611.9
2018-Feb-19 17:30S 00°43' W 048°25'511.0
2018-Feb-19 17:01S 00°47' W 048°28'5 9.3
2018-Feb-19 16:30S 00°52' W 048°29'5 9.1
2018-Feb-19 16:00S 00°56' W 048°27'4 8.3
2018-Feb-19 15:30S 00°60' W 048°26'4 7.9
2018-Feb-19 15:00S 01°03' W 048°29'4 8.5
2018-Feb-19 14:30S 01°06' W 048°32'3 6.8
2018-Feb-19 14:00S 01°09' W 048°33'5 8.7
2018-Feb-19 13:28S 01°14' W 048°35'612.4
2018-Feb-19 13:00S 01°18' W 048°39'612.5
2018-Feb-19 12:30S 01°23' W 048°42'612.9
2018-Feb-19 12:00S 01°29' W 048°44'3 6.0
2018-Feb-19 11:30S 01°32' W 048°45'0 0.0
2018-Feb-19 10:49S 01°32' W 048°45'0 0.0
2018-Feb-19 10:25S 01°32' W 048°45'0 0.0
2018-Feb-19 09:56S 01°32' W 048°45'0 0.0
2018-Feb-19 09:25S 01°32' W 048°45'0 0.0
2018-Feb-19 08:49S 01°32' W 048°45'0 0.0
2018-Feb-19 08:19S 01°32' W 048°45'0 0.0
2018-Feb-19 07:56S 01°32' W 048°45'0 0.0
2018-Feb-19 07:25S 01°32' W 048°45'0 0.0
2018-Feb-19 06:56S 01°32' W 048°45'0 0.0
2018-Feb-19 06:25S 01°32' W 048°45'0 0.0
2018-Feb-19 05:49S 01°32' W 048°45'0 0.0
2018-Feb-19 05:25S 01°32' W 048°45'0 0.0
2018-Feb-19 04:49S 01°32' W 048°45'0 0.0
2018-Feb-19 04:25S 01°32' W 048°45'0 0.0
2018-Feb-19 03:55S 01°32' W 048°45'0 0.0
2018-Feb-19 03:25S 01°32' W 048°45'0 0.0
2018-Feb-19 02:55S 01°32' W 048°45'0 0.0
2018-Feb-19 02:25S 01°32' W 048°45'0 0.0
2018-Feb-19 01:55S 01°32' W 048°45'0 0.0
2018-Feb-19 01:25S 01°32' W 048°45'0 0.0
2018-Feb-19 00:56S 01°32' W 048°45'0 0.0
2018-Feb-19 00:25S 01°32' W 048°45'0 0.0
2018-Feb-18 23:55S 01°32' W 048°45'0 0.0
2018-Feb-18 23:25S 01°32' W 048°45'0 0.0
2018-Feb-18 22:55S 01°32' W 048°45'0 0.0
2018-Feb-18 22:25S 01°32' W 048°45'0 0.0
2018-Feb-18 21:55S 01°32' W 048°45'0 0.0
2018-Feb-18 21:25S 01°32' W 048°45'0 0.0
2018-Feb-18 20:49S 01°32' W 048°45'0 0.0
2018-Feb-18 20:26S 01°32' W 048°45'0 0.0
2018-Feb-18 19:55S 01°32' W 048°45'0 0.0
2018-Feb-18 19:25S 01°32' W 048°45'0 0.0
2018-Feb-18 18:55S 01°32' W 048°45'0 0.0
2018-Feb-18 18:28S 01°32' W 048°45'0 0.0
2018-Feb-18 17:49S 01°32' W 048°45'0 0.0
2018-Feb-18 17:28S 01°32' W 048°45'0 0.0
2018-Feb-18 16:58S 01°32' W 048°45'0 0.0
2018-Feb-18 16:28S 01°32' W 048°45'0 0.0
2018-Feb-18 15:55S 01°32' W 048°45'0 0.0
2018-Feb-18 15:26S 01°32' W 048°45'0 0.0
2018-Feb-18 14:55S 01°32' W 048°45'0 0.0
2018-Feb-18 14:26S 01°32' W 048°45'0 0.0
2018-Feb-18 13:49S 01°32' W 048°45'0 0.0
2018-Feb-18 13:26S 01°32' W 048°45'0 0.0
2018-Feb-18 12:55S 01°32' W 048°45'0 0.0
2018-Feb-18 12:25S 01°32' W 048°45'0 0.0
2018-Feb-18 11:56S 01°32' W 048°45'0 0.0
2018-Feb-18 11:19S 01°32' W 048°45'0 0.0
2018-Feb-18 10:57S 01°32' W 048°45'0 0.0
2018-Feb-18 10:25S 01°32' W 048°45'0 0.0
2018-Feb-18 09:55S 01°32' W 048°45'0 0.0
2018-Feb-18 09:25S 01°32' W 048°45'0 0.0
2018-Feb-18 08:50S 01°32' W 048°45'0 0.0
2018-Feb-18 08:29S 01°32' W 048°45'0 0.0
2018-Feb-18 07:50S 01°32' W 048°45'0 0.0
2018-Feb-18 07:25S 01°32' W 048°45'0 0.0
2018-Feb-18 06:58S 01°32' W 048°45'0 0.0
2018-Feb-18 06:30S 01°32' W 048°45'0 0.0
2018-Feb-18 05:58S 01°32' W 048°45'0 0.0
2018-Feb-18 05:28S 01°32' W 048°45'0 0.0
2018-Feb-18 04:58S 01°32' W 048°45'0 0.0
2018-Feb-18 04:29S 01°32' W 048°45'0 0.0
2018-Feb-18 03:58S 01°32' W 048°45'0 0.0
2018-Feb-18 03:28S 01°32' W 048°45'0 0.0
2018-Feb-18 02:58S 01°32' W 048°45'0 0.0
2018-Feb-18 02:25S 01°32' W 048°45'0 0.0
2018-Feb-18 01:58S 01°32' W 048°45'0 0.0
2018-Feb-18 01:25S 01°32' W 048°45'0 0.0
2018-Feb-18 00:55S 01°32' W 048°45'0 0.0
2018-Feb-18 00:26S 01°32' W 048°45'0 0.0
2018-Feb-17 23:55S 01°32' W 048°45'0 0.0
2018-Feb-17 23:25S 01°32' W 048°45'0 0.0
2018-Feb-17 22:55S 01°32' W 048°45'0 0.0
2018-Feb-17 22:25S 01°32' W 048°45'0 0.0
2018-Feb-17 21:49S 01°32' W 048°45'0 0.0
2018-Feb-17 21:25S 01°32' W 048°45'0 0.0
2018-Feb-17 20:55S 01°32' W 048°45'0 0.0
2018-Feb-17 20:25S 01°32' W 048°45'0 0.0
2018-Feb-17 19:58S 01°32' W 048°45'0 0.0
2018-Feb-17 19:19S 01°32' W 048°45'0 0.0
2018-Feb-17 18:56S 01°32' W 048°45'0 0.0
2018-Feb-17 18:25S 01°32' W 048°45'0 0.0
2018-Feb-17 17:56S 01°32' W 048°45'0 0.0
2018-Feb-17 17:25S 01°32' W 048°45'0 0.0
2018-Feb-17 16:55S 01°32' W 048°45'0 0.0
2018-Feb-17 16:28S 01°32' W 048°45'0 0.0
2018-Feb-17 15:53S 01°32' W 048°45'0 0.0
2018-Feb-17 15:25S 01°32' W 048°45'0 0.0
2018-Feb-17 14:58S 01°32' W 048°45'0 0.0
2018-Feb-17 14:25S 01°32' W 048°45'0 0.0
2018-Feb-17 13:49S 01°32' W 048°45'0 0.0
2018-Feb-17 13:25S 01°32' W 048°45'0 0.0
2018-Feb-17 12:58S 01°32' W 048°45'0 0.0
2018-Feb-17 12:26S 01°32' W 048°45'0 0.0
2018-Feb-17 11:55S 01°32' W 048°45'0 0.0
2018-Feb-17 11:28S 01°32' W 048°45'0 0.0
2018-Feb-17 10:58S 01°32' W 048°45'0 0.0
2018-Feb-17 10:25S 01°32' W 048°45'0 0.0
2018-Feb-17 09:58S 01°32' W 048°45'0 0.0
2018-Feb-17 09:28S 01°32' W 048°45'0 0.0
2018-Feb-17 08:58S 01°32' W 048°45'0 0.0
2018-Feb-17 08:28S 01°32' W 048°45'0 0.0
2018-Feb-17 07:58S 01°32' W 048°45'0 0.0
2018-Feb-17 07:28S 01°32' W 048°45'0 0.0
2018-Feb-17 06:58S 01°32' W 048°45'0 0.0
2018-Feb-17 06:30S 01°32' W 048°45'0 0.0
2018-Feb-17 05:58S 01°32' W 048°45'0 0.0
2018-Feb-17 05:28S 01°32' W 048°45'0 0.0
2018-Feb-17 04:55S 01°32' W 048°45'0 0.0
2018-Feb-17 04:28S 01°32' W 048°45'0 0.0
2018-Feb-17 03:59S 01°32' W 048°45'0 0.0
2018-Feb-17 03:28S 01°32' W 048°45'0 0.0
2018-Feb-17 02:58S 01°32' W 048°45'0 0.0
2018-Feb-17 02:28S 01°32' W 048°45'0 0.0
2018-Feb-17 01:55S 01°32' W 048°45'0 0.0
2018-Feb-17 01:28S 01°32' W 048°45'0 0.0
2018-Feb-17 00:59S 01°32' W 048°45'0 0.0
2018-Feb-17 00:22S 01°32' W 048°45'0 0.0
2018-Feb-16 23:59S 01°32' W 048°45'0 0.0
2018-Feb-16 23:28S 01°32' W 048°45'0 0.0
2018-Feb-16 22:52S 01°32' W 048°45'0 0.0
2018-Feb-16 22:22S 01°32' W 048°45'0 0.0
2018-Feb-16 22:00S 01°32' W 048°45'0 0.0
2018-Feb-16 21:28S 01°32' W 048°45'0 0.0
2018-Feb-16 20:59S 01°32' W 048°45'0 0.0
2018-Feb-16 20:28S 01°32' W 048°45'0 0.0
2018-Feb-16 19:31S 01°32' W 048°45'0 0.0
2018-Feb-16 16:20S 01°32' W 048°45'0 0.0
2018-Feb-16 15:55S 01°32' W 048°45'0 0.0
2018-Feb-16 15:20S 01°32' W 048°45'0 0.0
2018-Feb-16 14:55S 01°32' W 048°45'0 0.0
2018-Feb-16 14:26S 01°32' W 048°45'0 0.0
2018-Feb-16 13:55S 01°32' W 048°45'0 0.0
2018-Feb-16 13:25S 01°32' W 048°45'0 0.0
2018-Feb-16 12:49S 01°32' W 048°45'0 0.0
2018-Feb-16 12:25S 01°32' W 048°45'0 0.0
2018-Feb-16 11:56S 01°32' W 048°45'0 0.0
2018-Feb-16 11:22S 01°32' W 048°45'0 0.0
2018-Feb-16 10:50S 01°32' W 048°45'0 0.0
2018-Feb-16 10:27S 01°32' W 048°45'0 0.0
2018-Feb-16 09:56S 01°32' W 048°45'0 0.0
2018-Feb-16 09:25S 01°32' W 048°45'0 0.0
2018-Feb-16 08:55S 01°32' W 048°45'0 0.0
2018-Feb-16 08:27S 01°32' W 048°45'0 0.0
2018-Feb-16 07:55S 01°32' W 048°45'0 0.0
2018-Feb-16 07:25S 01°32' W 048°45'0 0.0
2018-Feb-16 06:55S 01°32' W 048°45'0 0.0
2018-Feb-16 06:30S 01°32' W 048°45'0 0.0
2018-Feb-16 05:55S 01°32' W 048°45'0 0.0
2018-Feb-16 05:26S 01°32' W 048°45'0 0.0
2018-Feb-16 04:51S 01°32' W 048°45'0 0.0
2018-Feb-16 04:25S 01°32' W 048°45'0 0.1
2018-Feb-16 04:00S 01°32' W 048°45'1 1.2
2018-Feb-16 03:30S 01°32' W 048°46'1 2.1
2018-Feb-16 02:58S 01°32' W 048°47'0 0.1
2018-Feb-16 02:25S 01°32' W 048°47'0 0.0
2018-Feb-16 01:56S 01°32' W 048°47'0 0.0
2018-Feb-16 01:25S 01°32' W 048°47'0 0.0
2018-Feb-16 00:44S 01°32' W 048°47'0 0.0
2018-Feb-16 00:25S 01°32' W 048°47'0 0.0
2018-Feb-15 23:55S 01°32' W 048°47'0 0.0
2018-Feb-15 23:19S 01°32' W 048°47'515.5
2018-Feb-15 23:00S 01°30' W 048°42'569.2 050 / 151013.2 5.4 28.024.028.1
2018-Feb-15 22:55S 01°32' W 048°47'0 0.1
2018-Feb-15 22:07S 01°32' W 048°47'0 0.1
2018-Feb-15 21:59S 01°32' W 048°47'0 0.1
2018-Feb-15 21:19S 01°32' W 048°47'0 0.1
2018-Feb-15 20:34S 01°31' W 048°47'0 0.2
2018-Feb-15 20:28S 01°31' W 048°47'0 0.1
2018-Feb-15 19:58S 01°31' W 048°47'0 0.0
2018-Feb-15 19:25S 01°31' W 048°47'511.4
2018-Feb-15 19:00S 01°30' W 048°42'5174.3 360 / 131012.0 5.4 28.023.928.0
2018-Feb-15 18:58S 01°31' W 048°47'0 0.1
2018-Feb-15 18:28S 01°32' W 048°47'510.2
2018-Feb-15 18:00S 01°30' W 048°42'5224.4 360 / 131012.0 5.4 28.023.928.0
2018-Feb-15 17:58S 01°32' W 048°47'0 0.2
2018-Feb-15 17:11S 01°32' W 048°47'0 0.2
2018-Feb-15 16:58S 01°32' W 048°47'0 0.1
2018-Feb-15 16:28S 01°32' W 048°47'0 0.0
2018-Feb-15 14:46S 01°32' W 048°47'0 0.0
2018-Feb-15 14:16S 01°32' W 048°47'0 0.0
2018-Feb-15 13:49S 01°32' W 048°47'5 1.8
2018-Feb-15 11:00S 01°30' W 048°42'0 0.0 140 / 41014.9 5.4 24.923.423.4
2018-Feb-15 09:00S 01°30' W 048°42'0 0.0 140 / 41013.8 5.4 24.222.723.1
2018-Feb-15 07:00S 01°30' W 048°42'5 6.8 090 / 51013.3 5.4 24.022.624.1
2018-Feb-15 06:16S 01°31' W 048°47'517.6
2018-Feb-15 06:00S 01°30' W 048°42'568.3 090 / 51013.3 5.4 24.022.624.1
2018-Feb-15 05:55S 01°31' W 048°47'0 0.0
2018-Feb-15 05:28S 01°31' W 048°47'0 0.1
2018-Feb-15 04:58S 01°31' W 048°47'0 0.2
2018-Feb-15 04:28S 01°32' W 048°47'0 0.2
2018-Feb-15 03:58S 01°32' W 048°47'0 0.0
2018-Feb-15 00:39S 01°32' W 048°47'0 0.0
2018-Feb-15 00:28S 01°32' W 048°47'0 0.0
2018-Feb-14 23:58S 01°32' W 048°47'0 0.0
2018-Feb-14 23:13S 01°32' W 048°47'0 0.1
2018-Feb-14 22:58S 01°32' W 048°47'0 0.0
2018-Feb-14 22:28S 01°32' W 048°47'510.6
2018-Feb-14 22:00S 01°30' W 048°42'541.2 050 / 181013.2 5.4 25.224.024.1
2018-Feb-14 21:52S 01°32' W 048°47'0 0.2
2018-Feb-14 21:25S 01°32' W 048°47'0 0.3
2018-Feb-14 20:58S 01°32' W 048°47'5 2.5
2018-Feb-14 19:00S 01°30' W 048°42'528.5 350 / 141013.0 5.4 27.022.826.1
2018-Feb-14 18:49S 01°31' W 048°47'0 0.2
2018-Feb-14 18:25S 01°32' W 048°47'511.4
2018-Feb-14 18:00S 01°30' W 048°42'568.0 350 / 141013.0 5.4 27.022.826.1
2018-Feb-14 17:55S 01°32' W 048°47'0 0.2
2018-Feb-14 17:27S 01°32' W 048°47'0 0.1
2018-Feb-14 16:59S 01°32' W 048°47'0 0.0
2018-Feb-14 16:28S 01°32' W 048°47'0 0.1
2018-Feb-14 15:57S 01°32' W 048°47'0 0.1
2018-Feb-14 15:30S 01°32' W 048°47'510.0
2018-Feb-14 15:00S 01°30' W 048°42'5259.1 350 / 81015.0 5.4 28.125.426.1
2018-Feb-14 14:58S 01°32' W 048°47'0 0.0
2018-Feb-14 14:30S 01°32' W 048°47'510.0
2018-Feb-14 14:00S 01°30' W 048°42'541.8 340 / 81015.5 5.4 28.124.125.2
2018-Feb-14 13:52S 01°32' W 048°47'0 0.0
2018-Feb-14 13:22S 01°32' W 048°47'0 0.0
2018-Feb-14 13:00S 01°32' W 048°47'51133.2
2018-Feb-14 13:00S 01°30' W 048°42'5 7.8 360 / 81015.5 5.4 27.224.325.1
2018-Feb-14 12:21S 01°32' W 048°47'514.2
2018-Feb-14 12:00S 01°30' W 048°42'5107.2 360 / 101015.2 5.4 21.219.620.1
2018-Feb-14 11:57S 01°32' W 048°47'0 0.0
2018-Feb-14 11:30S 01°32' W 048°47'510.0
2018-Feb-14 11:00S 01°30' W 048°42'5227.5 340 / 81014.2 5.4 24.322.823.1
2018-Feb-14 10:58S 01°32' W 048°47'0 0.2
2018-Feb-14 10:25S 01°32' W 048°47'511.4
2018-Feb-14 10:00S 01°30' W 048°42'528.3 360 / 81014.2 5.4 25.623.924.1
2018-Feb-14 09:49S 01°31' W 048°47'0 0.0
2018-Feb-14 09:25S 01°31' W 048°47'511.4
2018-Feb-14 09:00S 01°30' W 048°42'567.0 360 / 81013.2 5.4 25.323.624.1
2018-Feb-14 08:55S 01°31' W 048°47'0 0.0
2018-Feb-14 08:25S 01°31' W 048°47'0 0.1
2018-Feb-14 07:55S 01°31' W 048°47'0 0.1
2018-Feb-14 07:25S 01°31' W 048°47'0 0.0
2018-Feb-14 06:58S 01°31' W 048°47'0 0.0
2018-Feb-14 06:28S 01°31' W 048°47'0 0.0
2018-Feb-14 05:58S 01°31' W 048°47'0 0.0
2018-Feb-14 05:28S 01°31' W 048°47'0 0.1
2018-Feb-14 04:58S 01°32' W 048°47'0 0.2
2018-Feb-14 04:25S 01°32' W 048°47'0 0.2
2018-Feb-14 03:58S 01°32' W 048°47'0 0.1
2018-Feb-14 03:28S 01°32' W 048°47'0 0.0
2018-Feb-14 02:55S 01°32' W 048°47'0 0.0
2018-Feb-14 02:25S 01°32' W 048°47'0 0.0
2018-Feb-14 01:55S 01°32' W 048°47'0 0.0
2018-Feb-14 01:25S 01°32' W 048°47'0 0.0
2018-Feb-14 00:55S 01°32' W 048°47'0 0.0
2018-Feb-14 00:25S 01°32' W 048°47'0 0.0
2018-Feb-13 23:49S 01°32' W 048°47'0 0.0
2018-Feb-13 23:25S 01°32' W 048°47'0 0.0
2018-Feb-13 22:58S 01°32' W 048°47'0 0.0
2018-Feb-13 22:25S 01°32' W 048°47'0 0.0
2018-Feb-13 21:58S 01°32' W 048°47'0 0.0
2018-Feb-13 21:19S 01°32' W 048°47'0 0.3
2018-Feb-13 20:58S 01°32' W 048°47'0 0.3
2018-Feb-13 20:28S 01°32' W 048°47'0 0.1
2018-Feb-13 19:58S 01°31' W 048°47'0 0.0
2018-Feb-13 19:28S 01°31' W 048°47'0 0.1
2018-Feb-13 18:58S 01°31' W 048°47'0 0.0
2018-Feb-13 18:25S 01°31' W 048°47'  
Track history (hours):
 
Tides and Currents Weather Stations Pressure Air Temp Water Temp Dewpoint Dewpoint Depression Visibility Wind Speed Wind Dir Waves Ship Positions

Saga Odyssey

Last reported at 2018-Feb-23 18:00 UTC. Time now 2018-Feb-24 00:52 UTC.
Position N 11°00' W 060°54'.

Length 199 m; draft 11.5 m.

Type: Cargo ship. MMSI: 477058200.

Date/timePositionNaut miles runAvg speedWind from/ knotsBaromVisibWave heightAir tempDewpointWater temp
2018-Feb-23 18:00N 11°00' W 060°54'48 9.5
2018-Feb-23 13:00N 10°36' W 060°12'2121.4 070 / 221017.2 5.4 26.023.224.6
2018-Feb-23 12:00N 10°24' W 059°54'10411.5 070 / 221017.2 5.4 26.823.524.6
2018-Feb-23 03:00N 09°30' W 058°24'9612.0 050 / 191016.4 5.4 26.322.224.2
2018-Feb-22 19:00N 08°42' W 057°00'17712.6
2018-Feb-22 05:00N 07°06' W 054°30'2210.8
2018-Feb-22 03:00N 06°54' W 054°12'9912.4 050 / 221015.1 5.4 25.121.023.3
2018-Feb-21 19:00N 06°00' W 052°48'5313.4
2018-Feb-21 15:00N 05°36' W 052°00'5112.9 050 / 211014.2 5.4 24.222.823.4
2018-Feb-21 11:00N 05°06' W 051°18'9812.3 050 / 211014.2 5.4 24.222.823.4
2018-Feb-21 03:00N 04°06' W 050°00'4711.7 070 / 201015.2 5.4 25.323.824.1
2018-Feb-20 23:00N 03°30' W 049°30'1313.4 070 / 201012.2 5.4 25.323.824.1
2018-Feb-20 22:00N 03°18' W 049°24'8211.7 070 / 201012.6 5.4 25.423.624.5
2018-Feb-20 15:00N 02°12' W 048°36'4711.7 070 / 181013.2 5.4 24.622.623.3
2018-Feb-20 11:00N 01°36' W 048°06'65 9.3 070 / 181013.2 5.4 24.622.623.3
2018-Feb-20 04:00N 00°42' W 047°30'48 8.7 060 / 10 1.1
2018-Feb-19 22:27S 00°05' W 047°40'4 9.0
2018-Feb-19 22:00S 00°08' W 047°43'5 9.9
2018-Feb-19 21:30S 00°11' W 047°47'510.7
2018-Feb-19 21:00S 00°14' W 047°51'612.9
2018-Feb-19 20:30S 00°17' W 047°57'713.1
2018-Feb-19 20:00S 00°20' W 048°03'713.4
2018-Feb-19 19:30S 00°23' W 048°09'813.8
2018-Feb-19 18:57S 00°28' W 048°15'613.1
2018-Feb-19 18:30S 00°32' W 048°19'612.6
2018-Feb-19 18:00S 00°37' W 048°22'611.9
2018-Feb-19 17:30S 00°43' W 048°25'511.0
2018-Feb-19 17:01S 00°47' W 048°28'5 9.3
2018-Feb-19 16:30S 00°52' W 048°29'5 9.1
2018-Feb-19 16:00S 00°56' W 048°27'4 8.3
2018-Feb-19 15:30S 00°60' W 048°26'4 7.9
2018-Feb-19 15:00S 01°03' W 048°29'4 8.5
2018-Feb-19 14:30S 01°06' W 048°32'3 6.8
2018-Feb-19 14:00S 01°09' W 048°33'5 8.7
2018-Feb-19 13:28S 01°14' W 048°35'612.4
2018-Feb-19 13:00S 01°18' W 048°39'612.5
2018-Feb-19 12:30S 01°23' W 048°42'612.9
2018-Feb-19 12:00S 01°29' W 048°44'3 6.0
2018-Feb-19 11:30S 01°32' W 048°45'0 0.0
2018-Feb-19 10:49S 01°32' W 048°45'0 0.0
2018-Feb-19 10:25S 01°32' W 048°45'0 0.0
2018-Feb-19 09:56S 01°32' W 048°45'0 0.0
2018-Feb-19 09:25S 01°32' W 048°45'0 0.0
2018-Feb-19 08:49S 01°32' W 048°45'0 0.0
2018-Feb-19 08:19S 01°32' W 048°45'0 0.0
2018-Feb-19 07:56S 01°32' W 048°45'0 0.0
2018-Feb-19 07:25S 01°32' W 048°45'0 0.0
2018-Feb-19 06:56S 01°32' W 048°45'0 0.0
2018-Feb-19 06:25S 01°32' W 048°45'0 0.0
2018-Feb-19 05:49S 01°32' W 048°45'0 0.0
2018-Feb-19 05:25S 01°32' W 048°45'0 0.0
2018-Feb-19 04:49S 01°32' W 048°45'0 0.0
2018-Feb-19 04:25S 01°32' W 048°45'0 0.0
2018-Feb-19 03:55S 01°32' W 048°45'0 0.0
2018-Feb-19 03:25S 01°32' W 048°45'0 0.0
2018-Feb-19 02:55S 01°32' W 048°45'0 0.0
2018-Feb-19 02:25S 01°32' W 048°45'0 0.0
2018-Feb-19 01:55S 01°32' W 048°45'0 0.0
2018-Feb-19 01:25S 01°32' W 048°45'0 0.0
2018-Feb-19 00:56S 01°32' W 048°45'0 0.0
2018-Feb-19 00:25S 01°32' W 048°45'0 0.0
2018-Feb-18 23:55S 01°32' W 048°45'0 0.0
2018-Feb-18 23:25S 01°32' W 048°45'0 0.0
2018-Feb-18 22:55S 01°32' W 048°45'0 0.0
2018-Feb-18 22:25S 01°32' W 048°45'0 0.0
2018-Feb-18 21:55S 01°32' W 048°45'0 0.0
2018-Feb-18 21:25S 01°32' W 048°45'0 0.0
2018-Feb-18 20:49S 01°32' W 048°45'0 0.0
2018-Feb-18 20:26S 01°32' W 048°45'0 0.0
2018-Feb-18 19:55S 01°32' W 048°45'0 0.0
2018-Feb-18 19:25S 01°32' W 048°45'0 0.0
2018-Feb-18 18:55S 01°32' W 048°45'0 0.0
2018-Feb-18 18:28S 01°32' W 048°45'0 0.0
2018-Feb-18 17:49S 01°32' W 048°45'0 0.0
2018-Feb-18 17:28S 01°32' W 048°45'0 0.0
2018-Feb-18 16:58S 01°32' W 048°45'0 0.0
2018-Feb-18 16:28S 01°32' W 048°45'0 0.0
2018-Feb-18 15:55S 01°32' W 048°45'0 0.0
2018-Feb-18 15:26S 01°32' W 048°45'0 0.0
2018-Feb-18 14:55S 01°32' W 048°45'0 0.0
2018-Feb-18 14:26S 01°32' W 048°45'0 0.0
2018-Feb-18 13:49S 01°32' W 048°45'0 0.0
2018-Feb-18 13:26S 01°32' W 048°45'0 0.0
2018-Feb-18 12:55S 01°32' W 048°45'0 0.0
2018-Feb-18 12:25S 01°32' W 048°45'0 0.0
2018-Feb-18 11:56S 01°32' W 048°45'0 0.0
2018-Feb-18 11:19S 01°32' W 048°45'0 0.0
2018-Feb-18 10:57S 01°32' W 048°45'0 0.0
2018-Feb-18 10:25S 01°32' W 048°45'0 0.0
2018-Feb-18 09:55S 01°32' W 048°45'0 0.0
2018-Feb-18 09:25S 01°32' W 048°45'0 0.0
2018-Feb-18 08:50S 01°32' W 048°45'0 0.0
2018-Feb-18 08:29S 01°32' W 048°45'0 0.0
2018-Feb-18 07:50S 01°32' W 048°45'0 0.0
2018-Feb-18 07:25S 01°32' W 048°45'0 0.0
2018-Feb-18 06:58S 01°32' W 048°45'0 0.0
2018-Feb-18 06:30S 01°32' W 048°45'0 0.0
2018-Feb-18 05:58S 01°32' W 048°45'0 0.0
2018-Feb-18 05:28S 01°32' W 048°45'0 0.0
2018-Feb-18 04:58S 01°32' W 048°45'0 0.0
2018-Feb-18 04:29S 01°32' W 048°45'0 0.0
2018-Feb-18 03:58S 01°32' W 048°45'0 0.0
2018-Feb-18 03:28S 01°32' W 048°45'0 0.0
2018-Feb-18 02:58S 01°32' W 048°45'0 0.0
2018-Feb-18 02:25S 01°32' W 048°45'0 0.0
2018-Feb-18 01:58S 01°32' W 048°45'0 0.0
2018-Feb-18 01:25S 01°32' W 048°45'0 0.0
2018-Feb-18 00:55S 01°32' W 048°45'0 0.0
2018-Feb-18 00:26S 01°32' W 048°45'0 0.0
2018-Feb-17 23:55S 01°32' W 048°45'0 0.0
2018-Feb-17 23:25S 01°32' W 048°45'0 0.0
2018-Feb-17 22:55S 01°32' W 048°45'0 0.0
2018-Feb-17 22:25S 01°32' W 048°45'0 0.0
2018-Feb-17 21:49S 01°32' W 048°45'0 0.0
2018-Feb-17 21:25S 01°32' W 048°45'0 0.0
2018-Feb-17 20:55S 01°32' W 048°45'0 0.0
2018-Feb-17 20:25S 01°32' W 048°45'0 0.0
2018-Feb-17 19:58S 01°32' W 048°45'0 0.0
2018-Feb-17 19:19S 01°32' W 048°45'0 0.0
2018-Feb-17 18:56S 01°32' W 048°45'0 0.0
2018-Feb-17 18:25S 01°32' W 048°45'0 0.0
2018-Feb-17 17:56S 01°32' W 048°45'0 0.0
2018-Feb-17 17:25S 01°32' W 048°45'0 0.0
2018-Feb-17 16:55S 01°32' W 048°45'0 0.0
2018-Feb-17 16:28S 01°32' W 048°45'0 0.0
2018-Feb-17 15:53S 01°32' W 048°45'0 0.0
2018-Feb-17 15:25S 01°32' W 048°45'0 0.0
2018-Feb-17 14:58S 01°32' W 048°45'0 0.0
2018-Feb-17 14:25S 01°32' W 048°45'0 0.0
2018-Feb-17 13:49S 01°32' W 048°45'0 0.0
2018-Feb-17 13:25S 01°32' W 048°45'0 0.0
2018-Feb-17 12:58S 01°32' W 048°45'0 0.0
2018-Feb-17 12:26S 01°32' W 048°45'0 0.0
2018-Feb-17 11:55S 01°32' W 048°45'0 0.0
2018-Feb-17 11:28S 01°32' W 048°45'0 0.0
2018-Feb-17 10:58S 01°32' W 048°45'0 0.0
2018-Feb-17 10:25S 01°32' W 048°45'0 0.0
2018-Feb-17 09:58S 01°32' W 048°45'0 0.0
2018-Feb-17 09:28S 01°32' W 048°45'0 0.0
2018-Feb-17 08:58S 01°32' W 048°45'0 0.0
2018-Feb-17 08:28S 01°32' W 048°45'0 0.0
2018-Feb-17 07:58S 01°32' W 048°45'0 0.0
2018-Feb-17 07:28S 01°32' W 048°45'0 0.0
2018-Feb-17 06:58S 01°32' W 048°45'0 0.0
2018-Feb-17 06:30S 01°32' W 048°45'0 0.0
2018-Feb-17 05:58S 01°32' W 048°45'0 0.0
2018-Feb-17 05:28S 01°32' W 048°45'0 0.0
2018-Feb-17 04:55S 01°32' W 048°45'0 0.0
2018-Feb-17 04:28S 01°32' W 048°45'0 0.0
2018-Feb-17 03:59S 01°32' W 048°45'0 0.0
2018-Feb-17 03:28S 01°32' W 048°45'0 0.0
2018-Feb-17 02:58S 01°32' W 048°45'0 0.0
2018-Feb-17 02:28S 01°32' W 048°45'0 0.0
2018-Feb-17 01:55S 01°32' W 048°45'0 0.0
2018-Feb-17 01:28S 01°32' W 048°45'0 0.0
2018-Feb-17 00:59S 01°32' W 048°45'0 0.0
2018-Feb-17 00:22S 01°32' W 048°45'0 0.0
2018-Feb-16 23:59S 01°32' W 048°45'0 0.0
2018-Feb-16 23:28S 01°32' W 048°45'0 0.0
2018-Feb-16 22:52S 01°32' W 048°45'0 0.0
2018-Feb-16 22:22S 01°32' W 048°45'0 0.0
2018-Feb-16 22:00S 01°32' W 048°45'0 0.0
2018-Feb-16 21:28S 01°32' W 048°45'0 0.0
2018-Feb-16 20:59S 01°32' W 048°45'0 0.0
2018-Feb-16 20:28S 01°32' W 048°45'0 0.0
2018-Feb-16 19:31S 01°32' W 048°45'0 0.0
2018-Feb-16 16:20S 01°32' W 048°45'0 0.0
2018-Feb-16 15:55S 01°32' W 048°45'0 0.0
2018-Feb-16 15:20S 01°32' W 048°45'0 0.0
2018-Feb-16 14:55S 01°32' W 048°45'0 0.0
2018-Feb-16 14:26S 01°32' W 048°45'0 0.0
2018-Feb-16 13:55S 01°32' W 048°45'0 0.0
2018-Feb-16 13:25S 01°32' W 048°45'0 0.0
2018-Feb-16 12:49S 01°32' W 048°45'0 0.0
2018-Feb-16 12:25S 01°32' W 048°45'0 0.0
2018-Feb-16 11:56S 01°32' W 048°45'0 0.0
2018-Feb-16 11:22S 01°32' W 048°45'0 0.0
2018-Feb-16 10:50S 01°32' W 048°45'0 0.0
2018-Feb-16 10:27S 01°32' W 048°45'0 0.0
2018-Feb-16 09:56S 01°32' W 048°45'0 0.0
2018-Feb-16 09:25S 01°32' W 048°45'0 0.0
2018-Feb-16 08:55S 01°32' W 048°45'0 0.0
2018-Feb-16 08:27S 01°32' W 048°45'0 0.0
2018-Feb-16 07:55S 01°32' W 048°45'0 0.0
2018-Feb-16 07:25S 01°32' W 048°45'0 0.0
2018-Feb-16 06:55S 01°32' W 048°45'0 0.0
2018-Feb-16 06:30S 01°32' W 048°45'0 0.0
2018-Feb-16 05:55S 01°32' W 048°45'0 0.0
2018-Feb-16 05:26S 01°32' W 048°45'0 0.0
2018-Feb-16 04:51S 01°32' W 048°45'0 0.0
2018-Feb-16 04:25S 01°32' W 048°45'0 0.1
2018-Feb-16 04:00S 01°32' W 048°45'1 1.2
2018-Feb-16 03:30S 01°32' W 048°46'1 2.1
2018-Feb-16 02:58S 01°32' W 048°47'0 0.1
2018-Feb-16 02:25S 01°32' W 048°47'0 0.0
2018-Feb-16 01:56S 01°32' W 048°47'0 0.0
2018-Feb-16 01:25S 01°32' W 048°47'0 0.0
2018-Feb-16 00:44S 01°32' W 048°47'0 0.0
2018-Feb-16 00:25S 01°32' W 048°47'0 0.0
2018-Feb-15 23:55S 01°32' W 048°47'0 0.0
2018-Feb-15 23:19S 01°32' W 048°47'515.5
2018-Feb-15 23:00S 01°30' W 048°42'569.2 050 / 151013.2 5.4 28.024.028.1
2018-Feb-15 22:55S 01°32' W 048°47'0 0.1
2018-Feb-15 22:07S 01°32' W 048°47'0 0.1
2018-Feb-15 21:59S 01°32' W 048°47'0 0.1
2018-Feb-15 21:19S 01°32' W 048°47'0 0.1
2018-Feb-15 20:34S 01°31' W 048°47'0 0.2
2018-Feb-15 20:28S 01°31' W 048°47'0 0.1
2018-Feb-15 19:58S 01°31' W 048°47'0 0.0
2018-Feb-15 19:25S 01°31' W 048°47'511.4
2018-Feb-15 19:00S 01°30' W 048°42'5174.3 360 / 131012.0 5.4 28.023.928.0
2018-Feb-15 18:58S 01°31' W 048°47'0 0.1
2018-Feb-15 18:28S 01°32' W 048°47'510.2
2018-Feb-15 18:00S 01°30' W 048°42'5224.4 360 / 131012.0 5.4 28.023.928.0
2018-Feb-15 17:58S 01°32' W 048°47'0 0.2
2018-Feb-15 17:11S 01°32' W 048°47'0 0.2
2018-Feb-15 16:58S 01°32' W 048°47'0 0.1
2018-Feb-15 16:28S 01°32' W 048°47'0 0.0
2018-Feb-15 14:46S 01°32' W 048°47'0 0.0
2018-Feb-15 14:16S 01°32' W 048°47'0 0.0
2018-Feb-15 13:49S 01°32' W 048°47'5 1.8
2018-Feb-15 11:00S 01°30' W 048°42'0 0.0 140 / 41014.9 5.4 24.923.423.4
2018-Feb-15 09:00S 01°30' W 048°42'0 0.0 140 / 41013.8 5.4 24.222.723.1
2018-Feb-15 07:00S 01°30' W 048°42'5 6.8 090 / 51013.3 5.4 24.022.624.1
2018-Feb-15 06:16S 01°31' W 048°47'517.6
2018-Feb-15 06:00S 01°30' W 048°42'568.3 090 / 51013.3 5.4 24.022.624.1
2018-Feb-15 05:55S 01°31' W 048°47'0 0.0
2018-Feb-15 05:28S 01°31' W 048°47'0 0.1
2018-Feb-15 04:58S 01°31' W 048°47'0 0.2
2018-Feb-15 04:28S 01°32' W 048°47'0 0.2
2018-Feb-15 03:58S 01°32' W 048°47'0 0.0
2018-Feb-15 00:39S 01°32' W 048°47'0 0.0
2018-Feb-15 00:28S 01°32' W 048°47'0 0.0
2018-Feb-14 23:58S 01°32' W 048°47'0 0.0
2018-Feb-14 23:13S 01°32' W 048°47'0 0.1
2018-Feb-14 22:58S 01°32' W 048°47'0 0.0
2018-Feb-14 22:28S 01°32' W 048°47'510.6
2018-Feb-14 22:00S 01°30' W 048°42'541.2 050 / 181013.2 5.4 25.224.024.1
2018-Feb-14 21:52S 01°32' W 048°47'0 0.2
2018-Feb-14 21:25S 01°32' W 048°47'0 0.3
2018-Feb-14 20:58S 01°32' W 048°47'5 2.5
2018-Feb-14 19:00S 01°30' W 048°42'528.5 350 / 141013.0 5.4 27.022.826.1
2018-Feb-14 18:49S 01°31' W 048°47'0 0.2
2018-Feb-14 18:25S 01°32' W 048°47'511.4
2018-Feb-14 18:00S 01°30' W 048°42'568.0 350 / 141013.0 5.4 27.022.826.1
2018-Feb-14 17:55S 01°32' W 048°47'0 0.2
2018-Feb-14 17:27S 01°32' W 048°47'0 0.1
2018-Feb-14 16:59S 01°32' W 048°47'0 0.0
2018-Feb-14 16:28S 01°32' W 048°47'0 0.1
2018-Feb-14 15:57S 01°32' W 048°47'0 0.1
2018-Feb-14 15:30S 01°32' W 048°47'510.0
2018-Feb-14 15:00S 01°30' W 048°42'5259.1 350 / 81015.0 5.4 28.125.426.1
2018-Feb-14 14:58S 01°32' W 048°47'0 0.0
2018-Feb-14 14:30S 01°32' W 048°47'510.0
2018-Feb-14 14:00S 01°30' W 048°42'541.8 340 / 81015.5 5.4 28.124.125.2
2018-Feb-14 13:52S 01°32' W 048°47'0 0.0
2018-Feb-14 13:22S 01°32' W 048°47'0 0.0
2018-Feb-14 13:00S 01°32' W 048°47'51133.2
2018-Feb-14 13:00S 01°30' W 048°42'5 7.8 360 / 81015.5 5.4 27.224.325.1
2018-Feb-14 12:21S 01°32' W 048°47'514.2
2018-Feb-14 12:00S 01°30' W 048°42'5107.2 360 / 101015.2 5.4 21.219.620.1
2018-Feb-14 11:57S 01°32' W 048°47'0 0.0
2018-Feb-14 11:30S 01°32' W 048°47'510.0
2018-Feb-14 11:00S 01°30' W 048°42'5227.5 340 / 81014.2 5.4 24.322.823.1
2018-Feb-14 10:58S 01°32' W 048°47'0 0.2
2018-Feb-14 10:25S 01°32' W 048°47'511.4
2018-Feb-14 10:00S 01°30' W 048°42'528.3 360 / 81014.2 5.4 25.623.924.1
2018-Feb-14 09:49S 01°31' W 048°47'0 0.0
2018-Feb-14 09:25S 01°31' W 048°47'511.4
2018-Feb-14 09:00S 01°30' W 048°42'567.0 360 / 81013.2 5.4 25.323.624.1
2018-Feb-14 08:55S 01°31' W 048°47'0 0.0
2018-Feb-14 08:25S 01°31' W 048°47'0 0.1
2018-Feb-14 07:55S 01°31' W 048°47'0 0.1
2018-Feb-14 07:25S 01°31' W 048°47'0 0.0
2018-Feb-14 06:58S 01°31' W 048°47'0 0.0
2018-Feb-14 06:28S 01°31' W 048°47'0 0.0
2018-Feb-14 05:58S 01°31' W 048°47'0 0.0
2018-Feb-14 05:28S 01°31' W 048°47'0 0.1
2018-Feb-14 04:58S 01°32' W 048°47'0 0.2
2018-Feb-14 04:25S 01°32' W 048°47'0 0.2
2018-Feb-14 03:58S 01°32' W 048°47'0 0.1
2018-Feb-14 03:28S 01°32' W 048°47'0 0.0
2018-Feb-14 02:55S 01°32' W 048°47'0 0.0
2018-Feb-14 02:25S 01°32' W 048°47'0 0.0
2018-Feb-14 01:55S 01°32' W 048°47'0 0.0
2018-Feb-14 01:25S 01°32' W 048°47'0 0.0
2018-Feb-14 00:55S 01°32' W 048°47'0 0.0
2018-Feb-14 00:25S 01°32' W 048°47'0 0.0
2018-Feb-13 23:49S 01°32' W 048°47'0 0.0
2018-Feb-13 23:25S 01°32' W 048°47'0 0.0
2018-Feb-13 22:58S 01°32' W 048°47'0 0.0
2018-Feb-13 22:25S 01°32' W 048°47'0 0.0
2018-Feb-13 21:58S 01°32' W 048°47'0 0.0
2018-Feb-13 21:19S 01°32' W 048°47'0 0.3
2018-Feb-13 20:58S 01°32' W 048°47'0 0.3
2018-Feb-13 20:28S 01°32' W 048°47'0 0.1
2018-Feb-13 19:58S 01°31' W 048°47'0 0.0
2018-Feb-13 19:28S 01°31' W 048°47'0 0.1
2018-Feb-13 18:58S 01°31' W 048°47'0 0.0
2018-Feb-13 18:25S 01°31' W 048°47'  

Dump ship's entire track history